createdAt,value
2019-05-12T00:00:34.279Z,1019.65
2019-05-12T00:01:09.599Z,1019.66
2019-05-12T00:01:44.862Z,1019.64
2019-05-12T00:02:20.122Z,1019.73
2019-05-12T00:02:55.418Z,1019.70
2019-05-12T00:03:30.485Z,1019.73
2019-05-12T00:04:07.823Z,1019.71
2019-05-12T00:04:41.131Z,1019.71
2019-05-12T00:05:18.196Z,1019.73
2019-05-12T00:05:51.603Z,1019.71
2019-05-12T00:06:28.324Z,1019.74
2019-05-12T00:07:02.013Z,1019.73
2019-05-12T00:07:38.150Z,1019.75
2019-05-12T00:08:12.204Z,1019.75
2019-05-12T00:08:48.729Z,1019.79
2019-05-12T00:09:23.370Z,1019.79
2019-05-12T00:09:58.535Z,1019.79
2019-05-12T00:10:33.644Z,1019.78
2019-05-12T00:11:09.168Z,1019.80
2019-05-12T00:11:44.667Z,1019.84
2019-05-12T00:12:20.049Z,1019.82
2019-05-12T00:12:57.984Z,1019.78
2019-05-12T00:13:31.242Z,1019.80
2019-05-12T00:14:08.473Z,1019.79
2019-05-12T00:14:41.826Z,1019.80
2019-05-12T00:15:18.835Z,1019.81
2019-05-12T00:15:52.174Z,1019.81
2019-05-12T00:16:28.364Z,1019.82
2019-05-12T00:17:03.062Z,1019.85
2019-05-12T00:17:38.734Z,1019.83
2019-05-12T00:18:13.835Z,1019.83
2019-05-12T00:18:49.126Z,1019.82
2019-05-12T00:19:24.398Z,1019.85
2019-05-12T00:20:00.208Z,1019.84
2019-05-12T00:20:35.273Z,1019.88
2019-05-12T00:21:10.924Z,1019.92
2019-05-12T00:21:48.132Z,1019.91
2019-05-12T00:22:21.622Z,1019.92
2019-05-12T00:22:58.138Z,1019.91
2019-05-12T00:23:31.794Z,1019.93
2019-05-12T00:24:08.009Z,1019.91
2019-05-12T00:24:42.354Z,1019.91
2019-05-12T00:25:18.107Z,1019.91
2019-05-12T00:25:52.928Z,1019.95
2019-05-12T00:26:28.292Z,1019.97
2019-05-12T00:27:03.358Z,1019.97
2019-05-12T00:27:38.938Z,1019.98
2019-05-12T00:28:14.246Z,1019.97
2019-05-12T00:28:49.311Z,1019.89
2019-05-12T00:29:24.500Z,1019.96
2019-05-12T00:29:59.688Z,1019.96
2019-05-12T00:30:35.383Z,1019.96
2019-05-12T00:31:10.783Z,1019.99
2019-05-12T00:31:47.615Z,1019.99
2019-05-12T00:32:21.681Z,1020.01
2019-05-12T00:32:58.075Z,1020.01
2019-05-12T00:33:32.541Z,1020.01
2019-05-12T00:34:07.761Z,1020.02
2019-05-12T00:34:42.920Z,1020.02
2019-05-12T00:35:18.252Z,1020.02
2019-05-12T00:35:53.286Z,1020.01
2019-05-12T00:36:29.262Z,1020.05
2019-05-12T00:37:04.168Z,1020.05
2019-05-12T00:37:39.788Z,1020.05
2019-05-12T00:38:17.503Z,1020.07
2019-05-12T00:38:50.674Z,1020.05
2019-05-12T00:39:27.763Z,1020.07
2019-05-12T00:40:01.053Z,1020.08
2019-05-12T00:40:38.822Z,1020.10
2019-05-12T00:41:11.557Z,1020.13
2019-05-12T00:41:48.162Z,1020.13
2019-05-12T00:42:22.564Z,1020.12
2019-05-12T00:42:58.077Z,1020.15
2019-05-12T00:43:33.066Z,1020.15
2019-05-12T00:44:08.790Z,1020.20
2019-05-12T00:44:43.561Z,1020.21
2019-05-12T00:45:19.159Z,1020.22
2019-05-12T00:45:54.536Z,1020.24
2019-05-12T00:46:30.147Z,1020.24
2019-05-12T00:47:05.113Z,1020.26
2019-05-12T00:47:40.547Z,1020.26
2019-05-12T00:48:17.667Z,1020.24
2019-05-12T00:48:51.222Z,1020.25
2019-05-12T00:49:28.769Z,1020.28
2019-05-12T00:50:01.994Z,1020.33
2019-05-12T00:50:38.183Z,1020.32
2019-05-12T00:51:12.943Z,1020.35
2019-05-12T00:51:48.521Z,1020.35
2019-05-12T00:52:23.815Z,1020.39
2019-05-12T00:52:59.317Z,1020.43
2019-05-12T00:53:39.873Z,1020.45
2019-05-12T00:54:10.492Z,1020.42
2019-05-12T00:54:48.085Z,1020.41
2019-05-12T00:55:21.267Z,1020.44
2019-05-12T00:55:57.891Z,1020.44
2019-05-12T00:56:31.896Z,1020.44
2019-05-12T00:57:07.778Z,1020.47
2019-05-12T00:57:42.706Z,1020.49
2019-05-12T00:58:19.511Z,1020.51
2019-05-12T00:58:53.292Z,1020.50
2019-05-12T00:59:28.701Z,1020.50
2019-05-12T01:00:03.982Z,1020.49
2019-05-12T01:00:40.993Z,1020.50
2019-05-12T01:01:14.613Z,1020.51
2019-05-12T01:01:50.019Z,1020.47
2019-05-12T01:02:25.382Z,1020.48
2019-05-12T01:03:00.277Z,1020.46
2019-05-12T01:03:38.057Z,1020.49
2019-05-12T01:04:10.658Z,1020.49
2019-05-12T01:04:46.079Z,1020.50
2019-05-12T01:05:21.271Z,1020.48
2019-05-12T01:05:57.802Z,1020.49
2019-05-12T01:06:31.812Z,1020.49
2019-05-12T01:07:08.668Z,1020.48
2019-05-12T01:07:42.577Z,1020.51
2019-05-12T01:08:18.722Z,1020.49
2019-05-12T01:08:53.051Z,1020.51
2019-05-12T01:09:28.353Z,1020.50
2019-05-12T01:10:05.064Z,1020.48
2019-05-12T01:10:39.260Z,1020.46
2019-05-12T01:11:14.319Z,1020.46
2019-05-12T01:11:49.711Z,1020.46
2019-05-12T01:12:25.189Z,1020.47
2019-05-12T01:13:00.786Z,1020.49
2019-05-12T01:13:38.129Z,1020.49
2019-05-12T01:14:11.375Z,1020.49
2019-05-12T01:14:47.798Z,1020.51
2019-05-12T01:15:22.099Z,1020.52
2019-05-12T01:15:58.677Z,1020.54
2019-05-12T01:16:32.612Z,1020.53
2019-05-12T01:17:08.429Z,1020.53
2019-05-12T01:17:43.490Z,1020.53
2019-05-12T01:18:18.785Z,1020.57
2019-05-12T01:18:54.271Z,1020.54
2019-05-12T01:19:29.870Z,1020.58
2019-05-12T01:20:05.244Z,1020.57
2019-05-12T01:20:40.774Z,1020.59
2019-05-12T01:21:18.295Z,1020.60
2019-05-12T01:21:51.976Z,1020.63
2019-05-12T01:22:27.734Z,1020.59
2019-05-12T01:23:02.371Z,1020.60
2019-05-12T01:23:53.411Z,1020.63
2019-05-12T01:24:13.427Z,1020.59
2019-05-12T01:24:48.737Z,1020.62
2019-05-12T01:25:24.316Z,1020.59
2019-05-12T01:25:59.713Z,1020.62
2019-05-12T01:26:35.216Z,1020.64
2019-05-12T01:27:10.513Z,1020.64
2019-05-12T01:27:48.230Z,1020.63
2019-05-12T01:28:21.117Z,1020.65
2019-05-12T01:28:58.034Z,1020.68
2019-05-12T01:29:32.072Z,1020.65
2019-05-12T01:30:08.710Z,1020.65
2019-05-12T01:30:42.558Z,1020.66
2019-05-12T01:31:18.084Z,1020.67
2019-05-12T01:31:52.976Z,1020.64
2019-05-12T01:32:28.742Z,1020.70
2019-05-12T01:33:03.463Z,1020.70
2019-05-12T01:33:38.762Z,1020.69
2019-05-12T01:34:14.044Z,1020.72
2019-05-12T01:34:49.540Z,1020.70
2019-05-12T01:35:24.731Z,1020.75
2019-05-12T01:36:00.150Z,1020.74
2019-05-12T01:36:37.952Z,1020.77
2019-05-12T01:37:10.658Z,1020.74
2019-05-12T01:37:47.925Z,1020.79
2019-05-12T01:38:21.730Z,1020.80
2019-05-12T01:38:59.147Z,1020.83
2019-05-12T01:39:32.216Z,1020.83
2019-05-12T01:40:08.925Z,1020.82
2019-05-12T01:40:43.145Z,1020.84
2019-05-12T01:41:18.275Z,1020.87
2019-05-12T01:41:53.643Z,1020.84
2019-05-12T01:42:28.940Z,1020.84
2019-05-12T01:43:04.426Z,1020.85
2019-05-12T01:43:39.724Z,1020.86
2019-05-12T01:44:14.933Z,1020.85
2019-05-12T01:44:50.312Z,1020.86
2019-05-12T01:45:25.413Z,1020.87
2019-05-12T01:46:00.791Z,1020.88
2019-05-12T01:46:38.154Z,1020.89
2019-05-12T01:47:11.397Z,1020.88
2019-05-12T01:47:48.438Z,1020.90
2019-05-12T01:48:22.169Z,1020.93
2019-05-12T01:48:59.104Z,1020.93
2019-05-12T01:49:32.945Z,1020.94
2019-05-12T01:50:09.081Z,1020.97
2019-05-12T01:50:43.474Z,1020.98
2019-05-12T01:51:18.882Z,1021.00
2019-05-12T01:51:54.186Z,1020.96
2019-05-12T01:52:29.691Z,1020.97
2019-05-12T01:53:07.793Z,1020.97
2019-05-12T01:53:40.577Z,1021.00
2019-05-12T01:54:18.578Z,1021.01
2019-05-12T01:54:51.363Z,1021.02
2019-05-12T01:55:28.116Z,1021.02
2019-05-12T01:56:02.649Z,1021.00
2019-05-12T01:56:38.417Z,1021.03
2019-05-12T01:57:13.659Z,1021.03
2019-05-12T01:57:48.879Z,1021.05
2019-05-12T01:58:24.046Z,1021.08
2019-05-12T01:58:59.270Z,1021.14
2019-05-12T01:59:34.559Z,1021.14
2019-05-12T02:00:09.879Z,1021.17
2019-05-12T02:00:45.154Z,1021.19
2019-05-12T02:01:20.293Z,1021.21
2019-05-12T02:01:57.956Z,1021.24
2019-05-12T02:02:30.896Z,1021.21
2019-05-12T02:03:05.914Z,1021.22
2019-05-12T02:03:41.213Z,1021.28
2019-05-12T02:04:18.065Z,1021.26
2019-05-12T02:04:52.299Z,1021.27
2019-05-12T02:05:27.968Z,1021.29
2019-05-12T02:06:02.885Z,1021.29
2019-05-12T02:06:38.607Z,1021.30
2019-05-12T02:07:13.898Z,1021.32
2019-05-12T02:07:49.080Z,1021.30
2019-05-12T02:08:24.381Z,1021.33
2019-05-12T02:08:59.566Z,1021.32
2019-05-12T02:09:34.777Z,1021.39
2019-05-12T02:10:10.044Z,1021.36
2019-05-12T02:10:45.548Z,1021.44
2019-05-12T02:11:21.102Z,1021.39
2019-05-12T02:11:58.105Z,1021.41
2019-05-12T02:12:32.008Z,1021.41
2019-05-12T02:13:07.889Z,1021.42
2019-05-12T02:13:42.785Z,1021.43
2019-05-12T02:14:18.304Z,1021.39
2019-05-12T02:14:53.273Z,1021.43
2019-05-12T02:15:28.778Z,1021.43
2019-05-12T02:16:03.974Z,1021.44
2019-05-12T02:16:39.531Z,1021.43
2019-05-12T02:17:15.138Z,1021.43
2019-05-12T02:17:50.669Z,1021.46
2019-05-12T02:18:28.085Z,1021.44
2019-05-12T02:19:01.155Z,1021.45
2019-05-12T02:19:38.454Z,1021.44
2019-05-12T02:20:11.674Z,1021.46
2019-05-12T02:20:48.185Z,1021.47
2019-05-12T02:21:22.483Z,1021.45
2019-05-12T02:21:57.895Z,1021.49
2019-05-12T02:22:32.966Z,1021.47
2019-05-12T02:23:09.044Z,1021.46
2019-05-12T02:23:43.445Z,1021.47
2019-05-12T02:24:26.620Z,1021.45
2019-05-12T02:24:54.174Z,1021.49
2019-05-12T02:25:29.549Z,1021.54
2019-05-12T02:26:04.876Z,1021.53
2019-05-12T02:26:40.074Z,1021.54
2019-05-12T02:27:17.693Z,1021.51
2019-05-12T02:27:50.772Z,1021.53
2019-05-12T02:28:25.915Z,1021.54
2019-05-12T02:29:01.494Z,1021.53
2019-05-12T02:29:38.463Z,1021.54
2019-05-12T02:30:12.512Z,1021.57
2019-05-12T02:30:50.353Z,1021.57
2019-05-12T02:31:23.128Z,1021.54
2019-05-12T02:31:59.071Z,1021.56
2019-05-12T02:32:44.536Z,1021.54
2019-05-12T02:33:09.617Z,1021.56
2019-05-12T02:33:44.753Z,1021.53
2019-05-12T02:34:19.886Z,1021.53
2019-05-12T02:34:55.181Z,1021.52
2019-05-12T02:35:30.600Z,1021.55
2019-05-12T02:36:06.019Z,1021.56
2019-05-12T02:36:44.587Z,1021.55
2019-05-12T02:37:16.699Z,1021.55
2019-05-12T02:37:54.453Z,1021.57
2019-05-12T02:38:27.169Z,1021.54
2019-05-12T02:39:05.226Z,1021.58
2019-05-12T02:39:37.965Z,1021.59
2019-05-12T02:40:15.090Z,1021.60
2019-05-12T02:40:48.759Z,1021.57
2019-05-12T02:41:25.978Z,1021.60
2019-05-12T02:41:59.617Z,1021.62
2019-05-12T02:42:35.054Z,1021.65
2019-05-12T02:43:10.190Z,1021.65
2019-05-12T02:43:45.951Z,1021.68
2019-05-12T02:44:20.909Z,1021.66
2019-05-12T02:44:56.100Z,1021.71
2019-05-12T02:45:31.513Z,1021.73
2019-05-12T02:46:06.825Z,1021.72
2019-05-12T02:46:44.439Z,1021.74
2019-05-12T02:47:17.352Z,1021.73
2019-05-12T02:47:54.340Z,1021.78
2019-05-12T02:48:28.148Z,1021.77
2019-05-12T02:49:04.890Z,1021.80
2019-05-12T02:49:38.930Z,1021.78
2019-05-12T02:50:14.660Z,1021.81
2019-05-12T02:50:49.453Z,1021.86
2019-05-12T02:51:25.021Z,1021.87
2019-05-12T02:51:59.794Z,1021.93
2019-05-12T02:52:35.381Z,1021.92
2019-05-12T02:53:10.787Z,1021.94
2019-05-12T02:53:46.934Z,1021.96
2019-05-12T02:54:24.952Z,1022.00
2019-05-12T02:55:00.471Z,1021.94
2019-05-12T02:55:34.817Z,1021.99
2019-05-12T02:56:08.161Z,1021.98
2019-05-12T02:56:44.889Z,1021.94
2019-05-12T02:57:18.739Z,1021.99
2019-05-12T02:57:55.104Z,1021.98
2019-05-12T02:58:29.571Z,1021.97
2019-05-12T02:59:05.369Z,1022.01
2019-05-12T02:59:40.546Z,1022.02
2019-05-12T03:00:16.153Z,1022.01
2019-05-12T03:00:54.585Z,1022.01
2019-05-12T03:01:26.636Z,1022.02
2019-05-12T03:02:05.050Z,1022.05
2019-05-12T03:02:37.142Z,1022.02
2019-05-12T03:03:14.614Z,1022.04
2019-05-12T03:03:48.045Z,1022.02
2019-05-12T03:04:24.705Z,1022.06
2019-05-12T03:04:58.676Z,1022.06
2019-05-12T03:05:35.043Z,1022.04
2019-05-12T03:06:09.695Z,1022.06
2019-05-12T03:06:44.906Z,1022.11
2019-05-12T03:07:20.100Z,1022.11
2019-05-12T03:07:55.411Z,1022.05
2019-05-12T03:08:30.593Z,1022.12
2019-05-12T03:09:05.841Z,1022.17
2019-05-12T03:09:40.943Z,1022.15
2019-05-12T03:10:16.045Z,1022.16
2019-05-12T03:10:51.331Z,1022.14
2019-05-12T03:11:26.839Z,1022.16
2019-05-12T03:12:05.495Z,1022.17
2019-05-12T03:12:37.445Z,1022.16
2019-05-12T03:13:14.956Z,1022.18
2019-05-12T03:13:48.140Z,1022.21
2019-05-12T03:14:25.243Z,1022.22
2019-05-12T03:14:58.861Z,1022.28
2019-05-12T03:15:36.758Z,1022.26
2019-05-12T03:16:09.630Z,1022.26
2019-05-12T03:16:45.467Z,1022.25
2019-05-12T03:17:20.414Z,1022.32
2019-05-12T03:17:55.724Z,1022.30
2019-05-12T03:18:34.512Z,1022.27
2019-05-12T03:19:05.973Z,1022.29
2019-05-12T03:19:41.177Z,1022.27
2019-05-12T03:20:16.573Z,1022.28
2019-05-12T03:20:54.041Z,1022.32
2019-05-12T03:21:26.901Z,1022.32
2019-05-12T03:22:04.784Z,1022.35
2019-05-12T03:22:37.481Z,1022.36
2019-05-12T03:23:15.749Z,1022.33
2019-05-12T03:23:48.577Z,1022.31
2019-05-12T03:24:25.020Z,1022.34
2019-05-12T03:25:11.302Z,1022.35
2019-05-12T03:25:35.634Z,1022.34
2019-05-12T03:26:09.733Z,1022.34
2019-05-12T03:26:45.187Z,1022.36
2019-05-12T03:27:20.230Z,1022.34
2019-05-12T03:27:55.531Z,1022.34
2019-05-12T03:28:30.820Z,1022.36
2019-05-12T03:29:06.375Z,1022.41
2019-05-12T03:29:44.786Z,1022.42
2019-05-12T03:30:19.354Z,1022.39
2019-05-12T03:30:56.974Z,1022.42
2019-05-12T03:31:31.280Z,1022.42
2019-05-12T03:32:07.545Z,1022.45
2019-05-12T03:32:38.315Z,1022.40
2019-05-12T03:33:18.813Z,1022.44
2019-05-12T03:33:53.005Z,1022.42
2019-05-12T03:34:28.742Z,1022.45
2019-05-12T03:34:58.901Z,1022.44
2019-05-12T03:35:41.543Z,1022.44
2019-05-12T03:36:10.278Z,1022.49
2019-05-12T03:36:50.764Z,1022.53
2019-05-12T03:37:20.815Z,1022.52
2019-05-12T03:37:56.096Z,1022.54
2019-05-12T03:38:31.402Z,1022.49
2019-05-12T03:39:06.781Z,1022.53
2019-05-12T03:39:44.605Z,1022.55
2019-05-12T03:40:17.814Z,1022.56
2019-05-12T03:40:55.079Z,1022.57
2019-05-12T03:41:28.620Z,1022.57
2019-05-12T03:42:05.102Z,1022.56
2019-05-12T03:42:39.233Z,1022.56
2019-05-12T03:43:14.844Z,1022.57
2019-05-12T03:43:49.446Z,1022.59
2019-05-12T03:44:25.339Z,1022.57
2019-05-12T03:45:00.163Z,1022.56
2019-05-12T03:45:36.234Z,1022.55
2019-05-12T03:46:10.802Z,1022.59
2019-05-12T03:46:46.321Z,1022.61
2019-05-12T03:47:24.723Z,1022.61
2019-05-12T03:47:56.696Z,1022.60
2019-05-12T03:48:34.729Z,1022.62
2019-05-12T03:49:07.111Z,1022.62
2019-05-12T03:49:45.266Z,1022.67
2019-05-12T03:50:17.942Z,1022.66
2019-05-12T03:50:54.141Z,1022.63
2019-05-12T03:51:28.571Z,1022.68
2019-05-12T03:52:05.030Z,1022.69
2019-05-12T03:52:39.579Z,1022.70
2019-05-12T03:53:15.456Z,1022.75
2019-05-12T03:53:50.060Z,1022.68
2019-05-12T03:54:25.350Z,1022.71
2019-05-12T03:55:01.107Z,1022.71
2019-05-12T03:55:41.612Z,1022.74
2019-05-12T03:56:14.839Z,1022.70
2019-05-12T03:56:47.196Z,1022.73
2019-05-12T03:57:25.225Z,1022.76
2019-05-12T03:57:57.880Z,1022.76
2019-05-12T03:58:34.686Z,1022.76
2019-05-12T03:59:08.786Z,1022.76
2019-05-12T03:59:45.011Z,1022.75
2019-05-12T04:00:19.519Z,1022.76
2019-05-12T04:00:55.386Z,1022.75
2019-05-12T04:01:30.203Z,1022.75
2019-05-12T04:02:05.530Z,1022.74
2019-05-12T04:02:45.016Z,1022.80
2019-05-12T04:03:16.826Z,1022.77
2019-05-12T04:03:54.220Z,1022.76
2019-05-12T04:04:27.668Z,1022.74
2019-05-12T04:05:05.283Z,1022.78
2019-05-12T04:05:38.301Z,1022.80
2019-05-12T04:06:15.520Z,1022.81
2019-05-12T04:06:48.908Z,1022.81
2019-05-12T04:07:24.452Z,1022.84
2019-05-12T04:07:59.621Z,1022.84
2019-05-12T04:08:35.059Z,1022.84
2019-05-12T04:09:10.232Z,1022.86
2019-05-12T04:09:45.418Z,1022.87
2019-05-12T04:10:21.063Z,1022.90
2019-05-12T04:10:56.343Z,1022.89
2019-05-12T04:11:31.773Z,1022.91
2019-05-12T04:12:07.050Z,1022.97
2019-05-12T04:12:44.782Z,1022.95
2019-05-12T04:13:17.697Z,1023.00
2019-05-12T04:13:55.078Z,1022.98
2019-05-12T04:14:28.738Z,1023.00
2019-05-12T04:15:05.239Z,1022.99
2019-05-12T04:15:39.463Z,1023.00
2019-05-12T04:16:16.521Z,1023.00
2019-05-12T04:16:49.672Z,1023.02
2019-05-12T04:17:24.880Z,1023.07
2019-05-12T04:18:00.264Z,1023.05
2019-05-12T04:18:35.881Z,1023.05
2019-05-12T04:19:14.401Z,1023.06
2019-05-12T04:19:46.574Z,1023.09
2019-05-12T04:20:25.122Z,1023.06
2019-05-12T04:20:57.422Z,1023.06
2019-05-12T04:21:35.090Z,1023.04
2019-05-12T04:22:08.125Z,1023.05
2019-05-12T04:22:44.622Z,1023.07
2019-05-12T04:23:18.839Z,1023.06
2019-05-12T04:23:54.750Z,1023.09
2019-05-12T04:24:29.136Z,1023.09
2019-05-12T04:25:06.051Z,1023.12
2019-05-12T04:25:51.042Z,1023.06
2019-05-12T04:26:17.040Z,1023.08
2019-05-12T04:26:50.695Z,1023.08
2019-05-12T04:27:25.979Z,1023.08
2019-05-12T04:28:04.552Z,1023.07
2019-05-12T04:28:36.736Z,1023.07
2019-05-12T04:29:15.151Z,1023.12
2019-05-12T04:29:47.636Z,1023.14
2019-05-12T04:30:25.089Z,1023.15
2019-05-12T04:30:58.602Z,1023.15
2019-05-12T04:31:34.804Z,1023.15
2019-05-12T04:32:08.989Z,1023.19
2019-05-12T04:32:45.039Z,1023.22
2019-05-12T04:33:19.431Z,1023.23
2019-05-12T04:33:54.946Z,1023.24
2019-05-12T04:34:29.832Z,1023.22
2019-05-12T04:35:05.132Z,1023.23
2019-05-12T04:35:40.229Z,1023.25
2019-05-12T04:36:15.565Z,1023.27
2019-05-12T04:36:51.162Z,1023.28
2019-05-12T04:37:26.673Z,1023.30
2019-05-12T04:38:04.108Z,1023.32
2019-05-12T04:38:37.273Z,1023.29
2019-05-12T04:39:14.742Z,1023.32
2019-05-12T04:39:48.306Z,1023.34
2019-05-12T04:40:24.758Z,1023.36
2019-05-12T04:40:59.275Z,1023.38
2019-05-12T04:41:35.468Z,1023.35
2019-05-12T04:42:10.076Z,1023.37
2019-05-12T04:42:45.545Z,1023.39
2019-05-12T04:43:20.999Z,1023.36
2019-05-12T04:43:56.471Z,1023.38
2019-05-12T04:44:34.575Z,1023.37
2019-05-12T04:45:07.171Z,1023.37
2019-05-12T04:45:44.772Z,1023.38
2019-05-12T04:46:17.491Z,1023.37
2019-05-12T04:46:55.444Z,1023.38
2019-05-12T04:47:28.012Z,1023.39
2019-05-12T04:48:05.177Z,1023.39
2019-05-12T04:48:39.427Z,1023.40
2019-05-12T04:49:15.730Z,1023.41
2019-05-12T04:49:50.521Z,1023.41
2019-05-12T04:50:25.972Z,1023.44
2019-05-12T04:51:01.296Z,1023.46
2019-05-12T04:51:36.735Z,1023.44
2019-05-12T04:52:15.316Z,1023.44
2019-05-12T04:52:47.529Z,1023.47
2019-05-12T04:53:25.149Z,1023.47
2019-05-12T04:53:58.280Z,1023.51
2019-05-12T04:54:35.611Z,1023.53
2019-05-12T04:55:08.926Z,1023.56
2019-05-12T04:55:44.590Z,1023.54
2019-05-12T04:56:20.610Z,1023.54
2019-05-12T04:56:55.171Z,1023.59
2019-05-12T04:57:30.073Z,1023.60
2019-05-12T04:58:05.771Z,1023.60
2019-05-12T04:58:41.009Z,1023.61
2019-05-12T04:59:16.586Z,1023.63
2019-05-12T04:59:54.244Z,1023.62
2019-05-12T05:00:27.376Z,1023.67
2019-05-12T05:01:06.026Z,1023.68
2019-05-12T05:01:38.099Z,1023.64
2019-05-12T05:02:15.349Z,1023.67
2019-05-12T05:02:48.891Z,1023.69
2019-05-12T05:03:24.687Z,1023.67
2019-05-12T05:03:59.508Z,1023.67
2019-05-12T05:04:34.932Z,1023.67
2019-05-12T05:05:10.318Z,1023.69
2019-05-12T05:05:45.661Z,1023.67
2019-05-12T05:06:20.882Z,1023.70
2019-05-12T05:06:56.399Z,1023.73
2019-05-12T05:07:31.784Z,1023.74
2019-05-12T05:08:07.209Z,1023.72
2019-05-12T05:08:44.284Z,1023.74
2019-05-12T05:09:17.521Z,1023.79
2019-05-12T05:09:54.860Z,1023.80
2019-05-12T05:10:28.146Z,1023.84
2019-05-12T05:11:04.099Z,1023.83
2019-05-12T05:11:38.676Z,1023.87
2019-05-12T05:12:14.137Z,1023.81
2019-05-12T05:12:49.296Z,1023.89
2019-05-12T05:13:24.678Z,1023.95
2019-05-12T05:14:00.189Z,1023.91
2019-05-12T05:14:35.666Z,1023.95
2019-05-12T05:15:11.026Z,1023.99
2019-05-12T05:15:46.205Z,1024.00
2019-05-12T05:16:24.631Z,1024.01
2019-05-12T05:16:57.034Z,1024.03
2019-05-12T05:17:34.523Z,1024.02
2019-05-12T05:18:07.639Z,1024.06
2019-05-12T05:18:43.940Z,1024.09
2019-05-12T05:19:18.253Z,1024.06
2019-05-12T05:19:53.573Z,1024.06
2019-05-12T05:20:28.764Z,1024.06
2019-05-12T05:21:04.702Z,1024.06
2019-05-12T05:21:39.739Z,1024.08
2019-05-12T05:22:15.067Z,1024.15
2019-05-12T05:22:50.357Z,1024.15
2019-05-12T05:23:25.863Z,1024.15
2019-05-12T05:24:01.050Z,1024.16
2019-05-12T05:24:36.176Z,1024.22
2019-05-12T05:25:11.676Z,1024.22
2019-05-12T05:25:46.906Z,1024.22
2019-05-12T05:26:27.658Z,1024.21
2019-05-12T05:26:57.638Z,1024.24
2019-05-12T05:27:34.033Z,1024.23
2019-05-12T05:28:08.123Z,1024.29
2019-05-12T05:28:43.495Z,1024.23
2019-05-12T05:29:18.732Z,1024.29
2019-05-12T05:29:54.343Z,1024.31
2019-05-12T05:30:29.345Z,1024.28
2019-05-12T05:31:04.876Z,1024.32
2019-05-12T05:31:40.096Z,1024.35
2019-05-12T05:32:15.827Z,1024.34
2019-05-12T05:32:53.467Z,1024.36
2019-05-12T05:33:26.422Z,1024.37
2019-05-12T05:34:04.326Z,1024.32
2019-05-12T05:34:36.924Z,1024.30
2019-05-12T05:35:13.687Z,1024.32
2019-05-12T05:35:47.740Z,1024.35
2019-05-12T05:36:25.018Z,1024.35
2019-05-12T05:37:01.515Z,1024.42
2019-05-12T05:37:37.046Z,1024.38
2019-05-12T05:38:10.861Z,1024.38
2019-05-12T05:38:45.651Z,1024.44
2019-05-12T05:39:21.233Z,1024.42
2019-05-12T05:39:56.550Z,1024.46
2019-05-12T05:40:31.856Z,1024.45
2019-05-12T05:41:10.387Z,1024.49
2019-05-12T05:41:48.940Z,1024.50
2019-05-12T05:42:22.239Z,1024.49
2019-05-12T05:42:54.253Z,1024.48
2019-05-12T05:43:29.138Z,1024.48
2019-05-12T05:44:04.716Z,1024.48
2019-05-12T05:44:40.031Z,1024.49
2019-05-12T05:45:19.515Z,1024.45
2019-05-12T05:45:54.569Z,1024.47
2019-05-12T05:46:25.993Z,1024.49
2019-05-12T05:47:01.350Z,1024.48
2019-05-12T05:47:36.656Z,1024.50
2019-05-12T05:48:13.593Z,1024.48
2019-05-12T05:48:47.659Z,1024.49
2019-05-12T05:49:23.815Z,1024.52
2019-05-12T05:49:58.490Z,1024.52
2019-05-12T05:50:34.327Z,1024.55
2019-05-12T05:51:09.263Z,1024.54
2019-05-12T05:51:46.757Z,1024.52
2019-05-12T05:52:23.827Z,1024.59
2019-05-12T05:52:55.200Z,1024.58
2019-05-12T05:53:30.186Z,1024.54
2019-05-12T05:54:05.910Z,1024.56
2019-05-12T05:54:41.105Z,1024.56
2019-05-12T05:55:19.938Z,1024.53
2019-05-12T05:55:56.320Z,1024.57
2019-05-12T05:56:38.681Z,1024.56
2019-05-12T05:57:02.971Z,1024.55
2019-05-12T05:57:37.413Z,1024.58
2019-05-12T05:58:15.222Z,1024.59
2019-05-12T05:58:51.973Z,1024.58
2019-05-12T05:59:31.388Z,1024.55
2019-05-12T05:59:58.838Z,1024.54
2019-05-12T06:00:35.277Z,1024.54
2019-05-12T06:01:09.509Z,1024.52
2019-05-12T06:01:48.826Z,1024.58
2019-05-12T06:02:25.375Z,1024.53
2019-05-12T06:02:55.506Z,1024.54
2019-05-12T06:03:31.196Z,1024.57
2019-05-12T06:04:08.603Z,1024.58
2019-05-12T06:04:47.749Z,1024.59
2019-05-12T06:05:19.966Z,1024.60
2019-05-12T06:05:53.460Z,1024.59
2019-05-12T06:06:28.103Z,1024.64
2019-05-12T06:07:04.110Z,1024.65
2019-05-12T06:07:39.299Z,1024.62
2019-05-12T06:08:18.688Z,1024.66
2019-05-12T06:08:49.017Z,1024.64
2019-05-12T06:09:24.449Z,1024.65
2019-05-12T06:09:59.840Z,1024.66
2019-05-12T06:10:39.840Z,1024.70
2019-05-12T06:11:14.852Z,1024.65
2019-05-12T06:11:45.807Z,1024.68
2019-05-12T06:12:21.099Z,1024.68
2019-05-12T06:12:56.321Z,1024.71
2019-05-12T06:13:34.008Z,1024.72
2019-05-12T06:14:11.579Z,1024.70
2019-05-12T06:14:48.822Z,1024.72
2019-05-12T06:15:17.493Z,1024.70
2019-05-12T06:15:53.739Z,1024.71
2019-05-12T06:16:28.589Z,1024.77
2019-05-12T06:17:04.282Z,1024.78
2019-05-12T06:17:39.512Z,1024.81
2019-05-12T06:18:14.803Z,1024.82
2019-05-12T06:18:50.238Z,1024.86
2019-05-12T06:19:26.204Z,1024.85
2019-05-12T06:20:00.956Z,1024.86
2019-05-12T06:20:38.102Z,1024.88
2019-05-12T06:21:13.564Z,1024.90
2019-05-12T06:21:46.832Z,1024.97
2019-05-12T06:22:23.606Z,1024.93
2019-05-12T06:22:57.748Z,1025.01
2019-05-12T06:23:37.043Z,1025.03
2019-05-12T06:24:13.522Z,1025.06
2019-05-12T06:24:44.228Z,1025.00
2019-05-12T06:25:19.263Z,1025.02
2019-05-12T06:25:55.184Z,1025.00
2019-05-12T06:26:33.330Z,1025.02
2019-05-12T06:27:14.297Z,1025.03
2019-05-12T06:27:40.915Z,1025.00
2019-05-12T06:28:16.438Z,1025.01
2019-05-12T06:28:53.915Z,1025.03
2019-05-12T06:29:27.614Z,1025.00
2019-05-12T06:30:05.939Z,1025.00
2019-05-12T06:30:44.239Z,1025.03
2019-05-12T06:31:18.613Z,1025.06
2019-05-12T06:31:49.354Z,1025.01
2019-05-12T06:32:25.060Z,1025.07
2019-05-12T06:32:59.988Z,1025.07
2019-05-12T06:33:36.351Z,1025.05
2019-05-12T06:34:15.318Z,1025.06
2019-05-12T06:34:46.180Z,1025.04
2019-05-12T06:35:21.509Z,1025.09
2019-05-12T06:35:56.805Z,1025.09
2019-05-12T06:36:34.068Z,1025.13
2019-05-12T06:37:11.811Z,1025.09
2019-05-12T06:37:44.371Z,1025.16
2019-05-12T06:38:18.408Z,1025.16
2019-05-12T06:38:54.133Z,1025.15
2019-05-12T06:39:28.916Z,1025.17
2019-05-12T06:40:04.127Z,1025.20
2019-05-12T06:40:41.028Z,1025.22
2019-05-12T06:41:20.463Z,1025.21
2019-05-12T06:41:49.993Z,1025.22
2019-05-12T06:42:25.343Z,1025.23
2019-05-12T06:43:00.729Z,1025.22
2019-05-12T06:43:39.585Z,1025.24
2019-05-12T06:44:14.984Z,1025.23
2019-05-12T06:44:49.055Z,1025.25
2019-05-12T06:45:23.490Z,1025.25
2019-05-12T06:45:57.430Z,1025.25
2019-05-12T06:46:34.228Z,1025.26
2019-05-12T06:47:08.406Z,1025.23
2019-05-12T06:47:45.414Z,1025.24
2019-05-12T06:48:24.435Z,1025.30
2019-05-12T06:48:54.638Z,1025.30
2019-05-12T06:49:29.731Z,1025.31
2019-05-12T06:50:05.132Z,1025.34
2019-05-12T06:50:40.662Z,1025.32
2019-05-12T06:51:22.728Z,1025.34
2019-05-12T06:51:53.678Z,1025.35
2019-05-12T06:52:27.226Z,1025.37
2019-05-12T06:53:04.715Z,1025.37
2019-05-12T06:53:37.744Z,1025.38
2019-05-12T06:54:15.043Z,1025.42
2019-05-12T06:54:51.238Z,1025.41
2019-05-12T06:55:23.888Z,1025.46
2019-05-12T06:55:59.305Z,1025.44
2019-05-12T06:56:34.555Z,1025.47
2019-05-12T06:57:21.299Z,1025.46
2019-05-12T06:57:49.887Z,1025.50
2019-05-12T06:58:26.054Z,1025.51
2019-05-12T06:58:55.676Z,1025.52
2019-05-12T06:59:31.065Z,1025.54
2019-05-12T07:00:06.186Z,1025.57
2019-05-12T07:00:43.584Z,1025.55
2019-05-12T07:01:19.350Z,1025.53
2019-05-12T07:01:58.734Z,1025.53
2019-05-12T07:02:30.270Z,1025.51
2019-05-12T07:03:04.023Z,1025.50
2019-05-12T07:03:38.278Z,1025.52
2019-05-12T07:04:14.141Z,1025.50
2019-05-12T07:04:56.332Z,1025.50
2019-05-12T07:05:28.141Z,1025.50
2019-05-12T07:06:00.660Z,1025.49
2019-05-12T07:06:36.182Z,1025.52
2019-05-12T07:07:14.119Z,1025.55
2019-05-12T07:07:47.012Z,1025.55